Time;durP1;ratioP1;P1;durP2;ratioP2;P2;SDS_P1;SDS_P2;PMS_P1;PMS_P2;Temp;Humidity;BMP_temperature;BMP_pressure;BME280_temperature;BME280_humidity;BME280_pressure;Samples;Min_cycle;Max_cycle;Signal;HPM_P1;HPM_P2
2020/12/04 00:02:05;;;;;;;1999.90;999.90;;;4.50;99.90;;;;;;4980039;28;20623;-79
2020/12/04 00:04:30;;;;;;;1999.90;999.90;;;4.50;99.90;;;;;;4979023;28;20171;-80
2020/12/04 00:06:57;;;;;;;1999.90;999.90;;;4.50;99.90;;;;;;4979704;28;20175;-80
2020/12/04 00:09:22;;;;;;;1999.90;999.90;;;4.50;99.90;;;;;;4979119;28;20171;-79
2020/12/04 00:11:48;;;;;;;1999.90;999.90;;;4.50;99.90;;;;;;4979280;28;20247;-79
2020/12/04 00:14:14;;;;;;;1999.90;999.90;;;4.50;99.90;;;;;;4978182;28;20179;-79
2020/12/04 00:16:39;;;;;;;1999.90;999.90;;;4.50;99.90;;;;;;4979474;28;20538;-80
2020/12/04 00:19:05;;;;;;;1999.90;999.90;;;4.60;99.90;;;;;;4978969;28;20178;-79
2020/12/04 00:21:30;;;;;;;1999.90;999.90;;;4.50;99.90;;;;;;4979098;28;20171;-79
2020/12/04 00:23:56;;;;;;;1999.90;999.90;;;4.50;99.90;;;;;;4978241;28;20175;-80
2020/12/04 00:26:22;;;;;;;1999.90;999.90;;;4.50;99.90;;;;;;4979403;28;20617;-80
2020/12/04 00:28:48;;;;;;;1999.90;999.90;;;4.50;99.90;;;;;;4978952;28;20191;-79
2020/12/04 00:31:14;;;;;;;1999.90;999.90;;;4.50;99.90;;;;;;4961853;28;20175;-79
2020/12/04 00:33:39;;;;;;;1999.90;999.90;;;4.50;99.90;;;;;;4978603;28;20170;-79
2020/12/04 00:36:05;;;;;;;1999.90;999.90;;;4.50;99.90;;;;;;4976826;28;20446;-79
2020/12/04 00:38:31;;;;;;;1999.90;999.90;;;4.50;99.90;;;;;;4978464;28;20224;-79
2020/12/04 00:40:56;;;;;;;1999.90;999.90;;;4.50;99.90;;;;;;4961764;28;20176;-79
2020/12/04 00:43:22;;;;;;;1999.90;999.90;;;4.50;99.90;;;;;;4979500;28;20167;-80
2020/12/04 00:45:47;;;;;;;1999.90;999.90;;;4.50;99.90;;;;;;4978803;28;20167;-79
2020/12/04 00:48:13;;;;;;;1999.90;999.90;;;4.50;99.90;;;;;;4979426;28;20263;-80
2020/12/04 00:50:39;;;;;;;1999.90;999.90;;;4.50;99.90;;;;;;4979480;28;20167;-79
2020/12/04 00:53:07;;;;;;;1999.90;999.90;;;4.50;99.90;;;;;;4978007;28;20195;-80
2020/12/04 00:55:33;;;;;;;1999.90;999.90;;;4.50;99.90;;;;;;4978924;28;20159;-79
2020/12/04 00:57:59;;;;;;;1999.90;999.90;;;4.50;99.90;;;;;;4961243;28;20219;-79
2020/12/04 01:00:25;;;;;;;1999.90;999.90;;;4.50;99.90;;;;;;4978995;28;20180;-79
2020/12/04 01:02:50;;;;;;;1999.90;999.90;;;4.50;99.90;;;;;;4978210;28;20167;-80
2020/12/04 01:05:16;;;;;;;1999.90;999.90;;;4.60;99.90;;;;;;4961052;28;20270;-79
2020/12/04 01:07:41;;;;;;;1999.90;999.90;;;4.50;99.90;;;;;;4978469;28;20159;-79
2020/12/04 01:10:07;;;;;;;1999.90;999.90;;;4.50;99.90;;;;;;4977753;28;20171;-79
2020/12/04 01:12:33;;;;;;;1999.90;999.90;;;4.50;99.90;;;;;;4978360;28;20191;-79
2020/12/04 01:14:58;;;;;;;1999.90;999.90;;;4.50;99.90;;;;;;4978160;28;20179;-79
2020/12/04 01:17:24;;;;;;;1999.90;999.90;;;4.50;99.90;;;;;;4977839;28;20558;-79
2020/12/04 01:19:50;;;;;;;1999.90;999.90;;;4.50;99.90;;;;;;4980179;28;20650;-79
2020/12/04 01:22:15;;;;;;;1999.90;999.90;;;4.50;99.90;;;;;;4978250;28;20167;-79
2020/12/04 01:24:41;;;;;;;1999.90;999.90;;;4.50;99.90;;;;;;4978021;28;20226;-79
2020/12/04 01:27:06;;;;;;;1999.90;999.90;;;4.50;99.90;;;;;;4960947;28;20294;-79
2020/12/04 01:29:32;;;;;;;1999.90;999.90;;;4.50;99.90;;;;;;4978018;28;20258;-79
2020/12/04 01:31:58;;;;;;;1999.90;999.90;;;4.50;99.90;;;;;;4978283;28;20226;-79
2020/12/04 01:34:23;;;;;;;1999.90;999.90;;;4.50;99.90;;;;;;4976786;28;20173;-79
2020/12/04 01:36:49;;;;;;;1999.90;999.90;;;4.50;99.90;;;;;;4978331;28;20242;-79
2020/12/04 01:39:15;;;;;;;1999.90;999.90;;;4.50;99.90;;;;;;4960785;28;20167;-79
2020/12/04 01:41:41;;;;;;;1999.90;999.90;;;4.50;99.90;;;;;;4978114;28;20227;-79
2020/12/04 01:44:06;;;;;;;1999.90;999.90;;;4.50;99.90;;;;;;4977894;28;20198;-79
2020/12/04 01:46:33;;;;;;;1999.90;999.90;;;4.50;99.90;;;;;;4976402;28;20174;-80
2020/12/04 01:48:58;;;;;;;1999.90;999.90;;;4.50;99.90;;;;;;4977844;28;20171;-79
2020/12/04 01:51:24;;;;;;;1999.90;999.90;;;4.50;99.90;;;;;;4962392;28;20293;-79
2020/12/04 01:53:51;;;;;;;1999.90;999.90;;;4.50;99.90;;;;;;4982174;28;20167;-79
2020/12/04 01:56:17;;;;;;;1999.90;999.90;;;4.40;99.90;;;;;;4982112;28;20163;-79
2020/12/04 01:58:43;;;;;;;1999.90;999.90;;;4.50;99.90;;;;;;4965012;28;20163;-79
2020/12/04 02:01:13;;;;;;;1999.90;999.90;;;4.40;99.90;;;;;;4981542;28;20164;-79
2020/12/04 02:03:41;;;;;;;1999.90;999.90;;;4.40;99.90;;;;;;4981976;28;20156;-79
2020/12/04 02:06:19;;;;;;;1999.90;999.90;;;4.40;99.90;;;;;;4981453;28;20167;-79
2020/12/04 02:09:09;;;;;;;1999.90;999.90;;;4.40;99.90;;;;;;4964658;28;20159;-79
2020/12/04 02:11:36;;;;;;;1999.90;999.90;;;4.40;99.90;;;;;;4974901;28;20709;-79
2020/12/04 02:16:38;;;;;;;1999.90;999.90;;;4.40;99.90;;;;;;4978771;28;20210;-86
2020/12/04 02:19:04;;;;;;;1999.90;999.90;;;4.30;99.90;;;;;;4979879;28;20222;-85
2020/12/04 02:21:30;;;;;;;1999.90;999.90;;;4.30;99.90;;;;;;4979751;28;20538;-86
2020/12/04 02:23:56;;;;;;;1999.90;999.90;;;4.30;99.90;;;;;;4979279;28;20171;-85
2020/12/04 02:26:22;;;;;;;1999.90;999.90;;;4.30;99.90;;;;;;4978595;28;20510;-86
2020/12/04 02:28:49;;;;;;;1999.90;999.90;;;4.30;99.90;;;;;;4979967;28;20422;-86
2020/12/04 02:31:15;;;;;;;1999.90;999.90;;;4.30;99.90;;;;;;4979722;28;20191;-85
2020/12/04 02:33:41;;;;;;;1999.90;999.90;;;4.40;99.90;;;;;;4979095;28;20167;-86
2020/12/04 02:36:07;;;;;;;1999.90;999.90;;;4.30;99.90;;;;;;4962747;28;20168;-86
2020/12/04 02:38:33;;;;;;;1999.90;999.90;;;4.30;99.90;;;;;;4979337;28;20516;-86
2020/12/04 02:40:59;;;;;;;1999.90;999.90;;;4.30;99.90;;;;;;4979434;28;20399;-85
2020/12/04 02:43:26;;;;;;;1999.90;999.90;;;4.30;99.90;;;;;;4979498;28;20406;-85
2020/12/04 02:45:52;;;;;;;1999.90;999.90;;;4.30;99.90;;;;;;4963473;28;20167;-85
2020/12/04 02:48:18;;;;;;;1999.90;999.90;;;4.40;99.90;;;;;;4963343;28;20182;-86
2020/12/04 02:50:43;;;;;;;1999.90;999.90;;;4.30;99.90;;;;;;4979749;28;20545;-86
2020/12/04 02:53:09;;;;;;;1999.90;999.90;;;4.30;99.90;;;;;;4962873;28;20454;-86
2020/12/04 02:55:35;;;;;;;1999.90;999.90;;;4.30;99.90;;;;;;4980525;28;20164;-86
2020/12/04 02:58:01;;;;;;;1999.90;999.90;;;4.30;99.90;;;;;;4979831;28;20166;-85
2020/12/04 03:00:27;;;;;;;1999.90;999.90;;;4.40;99.90;;;;;;4978937;28;20194;-86
2020/12/04 03:02:53;;;;;;;1999.90;999.90;;;4.30;99.90;;;;;;4979710;28;20195;-86
2020/12/04 03:05:19;;;;;;;1999.90;999.90;;;4.40;99.90;;;;;;4979336;28;20685;-85
2020/12/04 03:07:45;;;;;;;1999.90;999.90;;;4.30;99.90;;;;;;4979662;28;20211;-86
2020/12/04 03:10:12;;;;;;;1999.90;999.90;;;4.40;99.90;;;;;;4979672;28;20516;-85
2020/12/04 03:12:38;;;;;;;1999.90;999.90;;;4.40;99.90;;;;;;4961553;28;20195;-86
2020/12/04 03:15:05;;;;;;;1999.90;999.90;;;4.40;99.90;;;;;;4961721;28;20183;-86
2020/12/04 03:17:32;;;;;;;1999.90;999.90;;;4.40;99.90;;;;;;4979288;28;20579;-85
2020/12/04 03:19:58;;;;;;;1999.90;999.90;;;4.40;99.90;;;;;;4979474;28;20234;-85
2020/12/04 03:22:25;;;;;;;1999.90;999.90;;;4.40;99.90;;;;;;4961681;28;20647;-85
2020/12/04 03:24:50;;;;;;;1999.90;999.90;;;4.40;99.90;;;;;;4978395;28;20544;-86
2020/12/04 03:27:16;;;;;;;1999.90;999.90;;;4.40;99.90;;;;;;4976890;28;20167;-85
2020/12/04 03:29:42;;;;;;;1999.90;999.90;;;4.50;99.90;;;;;;4978262;28;20417;-86
2020/12/04 03:32:08;;;;;;;1999.90;999.90;;;4.50;99.90;;;;;;4961940;28;20613;-86
2020/12/04 03:34:34;;;;;;;1999.90;999.90;;;4.50;99.90;;;;;;4978112;28;20167;-86
2020/12/04 03:36:59;;;;;;;1999.90;999.90;;;4.60;99.90;;;;;;4961174;28;20163;-85
2020/12/04 03:39:25;;;;;;;1999.90;999.90;;;4.60;99.90;;;;;;4977522;28;20522;-85
2020/12/04 03:41:51;;;;;;;1999.90;999.90;;;4.70;99.90;;;;;;4977138;28;20255;-85
2020/12/04 03:44:17;;;;;;;1999.90;999.90;;;4.70;99.90;;;;;;4959890;28;20651;-85
2020/12/04 03:46:49;;;;;;;1999.90;999.90;;;4.70;99.90;;;;;;4977401;28;20171;-85
2020/12/04 03:49:15;;;;;;;1999.90;999.90;;;4.70;99.90;;;;;;4959555;28;20586;-85
2020/12/04 03:51:44;;;;;;;1999.90;999.90;;;4.70;99.90;;;;;;4976792;28;20281;-85
2020/12/04 03:54:16;;;;;;;1999.90;999.90;;;4.80;99.90;;;;;;4976801;28;20163;-85
2020/12/04 03:56:42;;;;;;;1999.90;999.90;;;4.80;99.90;;;;;;4977153;28;20190;-85
2020/12/04 03:59:08;;;;;;;1999.90;999.90;;;4.80;99.90;;;;;;4977052;28;20163;-86
2020/12/04 04:01:34;;;;;;;1999.90;999.90;;;4.90;99.90;;;;;;4959018;28;20941;-85
2020/12/04 04:04:00;;;;;;;1999.90;999.90;;;4.90;99.90;;;;;;4976600;28;20254;-86
2020/12/04 04:06:26;;;;;;;1999.90;999.90;;;4.90;99.90;;;;;;4976750;28;20195;-86
2020/12/04 04:08:52;;;;;;;1999.90;999.90;;;4.90;99.90;;;;;;4959026;28;20195;-85
2020/12/04 04:11:17;;;;;;;1999.90;999.90;;;5.00;99.90;;;;;;4959103;28;20242;-85
2020/12/04 04:13:43;;;;;;;1999.90;999.90;;;4.90;99.90;;;;;;4975542;28;20403;-86
2020/12/04 04:16:09;;;;;;;1999.90;999.90;;;5.00;99.90;;;;;;4958757;28;20194;-85
2020/12/04 04:18:35;;;;;;;1999.90;999.90;;;5.00;99.90;;;;;;4976157;28;20183;-85
2020/12/04 04:21:01;;;;;;;1999.90;999.90;;;5.00;99.90;;;;;;4976048;28;20171;-85
2020/12/04 04:23:27;;;;;;;1999.90;999.90;;;5.00;99.90;;;;;;4976278;28;20263;-85
2020/12/04 04:25:53;;;;;;;1999.90;999.90;;;5.00;99.90;;;;;;4975903;28;20159;-85
2020/12/04 04:28:19;;;;;;;1999.90;999.90;;;5.00;99.90;;;;;;4975990;28;20666;-86
2020/12/04 04:30:45;;;;;;;1999.90;999.90;;;5.00;99.90;;;;;;4979891;28;20442;-86
2020/12/04 04:33:11;;;;;;;1999.90;999.90;;;5.10;99.90;;;;;;4976416;28;20201;-85
2020/12/04 04:35:37;;;;;;;1999.90;999.90;;;5.10;99.90;;;;;;4975806;28;20159;-85
2020/12/04 04:38:04;;;;;;;1999.90;999.90;;;5.00;99.90;;;;;;4977667;28;20179;-86
2020/12/04 04:40:29;;;;;;;1999.90;999.90;;;5.10;99.90;;;;;;4981328;28;20302;-86
2020/12/04 04:43:12;;;;;;;1999.90;999.90;;;5.10;99.90;;;;;;4963939;28;20207;-86
2020/12/04 04:45:45;;;;;;;1999.90;999.90;;;5.10;99.90;;;;;;4980945;28;20770;-86
2020/12/04 04:48:32;;;;;;;1999.90;999.90;;;5.10;99.90;;;;;;4980996;28;20182;-86
2020/12/04 04:50:58;;;;;;;1999.90;999.90;;;5.20;99.90;;;;;;4981421;28;20159;-86
2020/12/04 04:53:25;;;;;;;1999.90;999.90;;;5.10;99.90;;;;;;4981341;28;20682;-86
2020/12/04 04:55:51;;;;;;;1999.90;999.90;;;5.10;99.90;;;;;;4963849;28;20715;-86
2020/12/04 04:58:17;;;;;;;1999.90;999.90;;;5.20;99.90;;;;;;4980915;28;20269;-86
2020/12/04 05:00:43;;;;;;;1999.90;999.90;;;5.20;99.90;;;;;;4981149;28;20210;-86
2020/12/04 05:03:10;;;;;;;1999.90;999.90;;;5.20;99.90;;;;;;4980937;28;20175;-86
2020/12/04 05:05:47;;;;;;;1999.90;999.90;;;5.10;99.90;;;;;;4964036;28;20998;-86
2020/12/04 05:08:17;;;;;;;1999.90;999.90;;;5.20;99.90;;;;;;4980757;28;20155;-86
2020/12/04 05:10:44;;;;;;;1999.90;999.90;;;5.20;99.90;;;;;;4963048;28;20167;-86
2020/12/04 05:13:11;;;;;;;1999.90;999.90;;;5.10;99.90;;;;;;4980758;28;20540;-86
2020/12/04 05:15:36;;;;;;;1999.90;999.90;;;5.10;99.90;;;;;;4980008;28;20187;-86
2020/12/04 05:18:20;;;;;;;1999.90;999.90;;;5.10;99.90;;;;;;4962665;28;20173;-86
2020/12/04 05:20:51;;;;;;;1999.90;999.90;;;5.20;99.90;;;;;;4979974;28;20401;-86
2020/12/04 05:23:17;;;;;;;1999.90;999.90;;;5.30;99.90;;;;;;4979577;28;20194;-86
2020/12/04 05:25:49;;;;;;;1999.90;999.90;;;5.20;99.90;;;;;;4978670;28;20173;-86
2020/12/04 05:28:29;;;;;;;1999.90;999.90;;;5.30;99.90;;;;;;4980304;28;20175;-86
2020/12/04 05:31:08;;;;;;;1999.90;999.90;;;5.30;99.90;;;;;;4979780;28;20154;-86
2020/12/04 05:33:34;;;;;;;1999.90;999.90;;;5.30;99.90;;;;;;4979998;28;20147;-86
2020/12/04 05:36:00;;;;;;;1999.90;999.90;;;5.30;99.90;;;;;;4963543;28;20167;-86
2020/12/04 05:38:26;;;;;;;1999.90;999.90;;;5.30;99.90;;;;;;4980295;28;20225;-86
2020/12/04 05:41:12;;;;;;;1999.90;999.90;;;5.30;99.90;;;;;;4962361;28;20167;-86
2020/12/04 05:43:39;;;;;;;1999.90;999.90;;;5.30;99.90;;;;;;4979916;28;20186;-86
2020/12/04 05:46:17;;;;;;;1999.90;999.90;;;5.40;99.90;;;;;;4979609;28;20168;-86
2020/12/04 05:49:04;;;;;;;1999.90;999.90;;;5.40;99.90;;;;;;4961727;28;20209;-86
2020/12/04 05:51:34;;;;;;;1999.90;999.90;;;5.40;99.90;;;;;;4979606;28;20183;-86
2020/12/04 05:54:01;;;;;;;1999.90;999.90;;;5.40;99.90;;;;;;4980245;28;20223;-86
2020/12/04 05:56:27;;;;;;;1999.90;999.90;;;5.40;99.90;;;;;;4980110;28;20167;-87
2020/12/04 05:58:55;;;;;;;1999.90;999.90;;;5.40;99.90;;;;;;4980084;28;20159;-86
2020/12/04 06:01:21;;;;;;;1999.90;999.90;;;5.50;99.90;;;;;;4979392;28;20173;-86
2020/12/04 06:03:52;;;;;;;1999.90;999.90;;;5.40;99.90;;;;;;4979351;28;20177;-86
2020/12/04 06:06:24;;;;;;;1999.90;999.90;;;5.50;99.90;;;;;;4962024;28;20171;-86
2020/12/04 06:08:56;;;;;;;1999.90;999.90;;;5.40;99.90;;;;;;4979306;28;20629;-86
2020/12/04 06:11:24;;;;;;;1999.90;999.90;;;5.50;99.90;;;;;;4979168;28;20227;-86
2020/12/04 06:13:54;;;;;;;1999.90;999.90;;;5.50;99.90;;;;;;4979970;28;20206;-86
2020/12/04 06:16:23;;;;;;;1999.90;999.90;;;5.50;99.90;;;;;;4980281;28;20322;-86
2020/12/04 06:18:54;;;;;;;1999.90;999.90;;;5.50;99.90;;;;;;4961110;28;20164;-86
2020/12/04 06:21:55;;;;;;;1999.90;999.90;;;5.50;99.90;;;;;;4962118;28;20181;-86
2020/12/04 06:24:20;;;;;;;1999.90;999.90;;;5.50;99.90;;;;;;4979906;28;20511;-86
2020/12/04 06:26:50;;;;;;;1999.90;999.90;;;5.50;99.90;;;;;;4979395;28;20167;-86
2020/12/04 06:29:16;;;;;;;1999.90;999.90;;;5.60;99.90;;;;;;4963424;28;20639;-86
2020/12/04 06:31:42;;;;;;;1999.90;999.90;;;5.60;99.90;;;;;;4979072;28;20187;-86
2020/12/04 06:34:19;;;;;;;1999.90;999.90;;;5.60;99.90;;;;;;4961990;28;20191;-86
2020/12/04 06:36:46;;;;;;;1999.90;999.90;;;5.60;99.90;;;;;;4980314;28;20558;-86
2020/12/04 06:39:32;;;;;;;1999.90;999.90;;;5.60;99.90;;;;;;4965899;28;20563;-86
2020/12/04 06:41:59;;;;;;;1999.90;999.90;;;5.70;99.90;;;;;;4983316;28;20175;-86
2020/12/04 06:44:31;;;;;;;1999.90;999.90;;;5.60;99.90;;;;;;4984004;28;20167;-86
2020/12/04 06:46:59;;;;;;;1999.90;999.90;;;5.60;99.90;;;;;;4983430;28;20258;-86
2020/12/04 06:52:12;;;;;;;1999.90;999.90;;;5.70;99.90;;;;;;4982404;28;20198;-86
2020/12/04 06:54:39;;;;;;;1999.90;999.90;;;5.70;99.90;;;;;;4965100;28;20635;-86
2020/12/04 06:57:09;;;;;;;1999.90;999.90;;;5.70;99.90;;;;;;4966909;28;20195;-86
2020/12/04 06:59:39;;;;;;;1999.90;999.90;;;5.80;99.90;;;;;;4984467;28;20160;-86
2020/12/04 07:02:14;;;;;;;1999.90;999.90;;;5.80;99.90;;;;;;4983210;28;20174;-86
2020/12/04 07:04:46;;;;;;;1999.90;999.90;;;5.80;99.90;;;;;;4982078;28;20167;-86
2020/12/04 07:07:16;;;;;;;1999.90;999.90;;;5.90;99.90;;;;;;4964194;28;20171;-86
2020/12/04 07:09:51;;;;;;;1999.90;999.90;;;5.80;99.90;;;;;;4980975;28;20516;-86
2020/12/04 07:12:20;;;;;;;1999.90;999.90;;;5.90;99.90;;;;;;4981032;28;20259;-86
2020/12/04 07:14:51;;;;;;;1999.90;999.90;;;6.00;99.90;;;;;;4981150;28;20678;-86
2020/12/04 07:17:19;;;;;;;1999.90;999.90;;;6.00;99.90;;;;;;4981010;28;20175;-86
2020/12/04 07:19:46;;;;;;;1999.90;999.90;;;6.00;99.90;;;;;;4981031;28;20186;-86
2020/12/04 07:22:14;;;;;;;1999.90;999.90;;;6.00;99.90;;;;;;4963518;28;20690;-86
2020/12/04 07:24:39;;;;;;;1999.90;999.90;;;6.10;99.90;;;;;;4980658;28;20234;-86
2020/12/04 07:27:06;;;;;;;1999.90;999.90;;;6.10;99.90;;;;;;4981020;28;20639;-86
2020/12/04 07:29:32;;;;;;;1999.90;999.90;;;6.10;99.90;;;;;;4980221;28;20163;-86
2020/12/04 07:31:58;;;;;;;1999.90;999.90;;;6.20;99.90;;;;;;4979924;28;20193;-86
2020/12/04 07:34:25;;;;;;;1999.90;999.90;;;6.20;99.90;;;;;;4980190;28;20567;-86
2020/12/04 07:36:56;;;;;;;1999.90;999.90;;;6.20;99.90;;;;;;4963367;28;20203;-86
2020/12/04 07:39:30;;;;;;;1999.90;999.90;;;6.30;99.90;;;;;;4963885;28;20163;-86
2020/12/04 07:41:57;;;;;;;1999.90;999.90;;;6.30;99.90;;;;;;4963142;28;20159;-86
2020/12/04 07:44:28;;;;;;;1999.90;999.90;;;6.30;99.90;;;;;;4963717;28;20194;-86
2020/12/04 07:47:05;;;;;;;1999.90;999.90;;;6.30;99.90;;;;;;4980001;28;20274;-86
2020/12/04 07:49:31;;;;;;;1999.90;999.90;;;6.40;99.90;;;;;;4978817;28;20207;-86
2020/12/04 07:52:09;;;;;;;1999.90;999.90;;;6.40;99.90;;;;;;4979483;28;20198;-86
2020/12/04 07:54:35;;;;;;;1999.90;999.90;;;6.40;99.90;;;;;;4979711;28;20174;-86
2020/12/04 07:57:02;;;;;;;1999.90;999.90;;;6.40;99.90;;;;;;4980840;28;20706;-86
2020/12/04 07:59:35;;;;;;;1999.90;999.90;;;6.40;99.90;;;;;;4980629;28;20167;-86
2020/12/04 08:02:02;;;;;;;1999.90;999.90;;;6.40;99.90;;;;;;4964068;28;20175;-86
2020/12/04 08:04:29;;;;;;;1999.90;999.90;;;6.40;99.90;;;;;;4981326;28;20199;-86
2020/12/04 08:07:06;;;;;;;1999.90;999.90;;;6.40;99.90;;;;;;4981213;28;20187;-87
2020/12/04 08:09:38;;;;;;;1999.90;999.90;;;6.30;99.90;;;;;;4963773;28;20167;-86
2020/12/04 08:12:08;;;;;;;1999.90;999.90;;;6.30;99.90;;;;;;4981356;28;20221;-86
2020/12/04 08:17:16;;;;;;;1999.90;999.90;;;6.40;99.90;;;;;;605728;26;20512;-88
2020/12/04 08:19:55;;;;;;;1999.90;999.90;;;6.40;99.90;;;;;;4968437;28;20179;-88
2020/12/04 08:22:51;;;;;;;1999.90;999.90;;;6.40;99.90;;;;;;4968774;28;20179;-87
2020/12/04 08:25:52;;;;;;;1999.90;999.90;;;6.50;99.90;;;;;;4968563;28;20183;-88
2020/12/04 08:28:39;;;;;;;;;;;;;;;;;;;;;
2020/12/04 08:31:42;;;;;;;1999.90;999.90;;;6.60;99.90;;;;;;4986091;28;20232;-88
2020/12/04 08:34:26;;;;;;;1999.90;999.90;;;6.60;99.90;;;;;;4986107;28;20182;-88
2020/12/04 08:37:09;;;;;;;1999.90;999.90;;;6.60;99.90;;;;;;4968518;28;20172;-88
2020/12/04 08:40:18;;;;;;;1999.90;999.90;;;6.50;99.90;;;;;;4985672;28;20234;-87
2020/12/04 08:43:20;;;;;;;1999.90;999.90;;;6.60;99.90;;;;;;4968288;28;20164;-88
2020/12/04 08:45:51;;;;;;;1999.90;999.90;;;6.60;99.90;;;;;;4986057;28;20159;-88
2020/12/04 08:48:50;;;;;;;1999.90;999.90;;;6.60;99.90;;;;;;4985891;28;20167;-88
2020/12/04 08:51:33;;;;;;;1999.90;999.90;;;6.70;99.90;;;;;;4965751;28;20183;-87
2020/12/04 08:54:06;;;;;;;1999.90;999.90;;;6.70;99.90;;;;;;4967856;28;20167;-88
2020/12/04 08:56:49;;;;;;;1999.90;999.90;;;6.70;99.90;;;;;;4967812;28;20191;-88
2020/12/04 08:59:17;;;;;;;1999.90;999.90;;;6.80;99.90;;;;;;4984067;28;20170;-87
2020/12/04 09:01:46;;;;;;;1999.90;999.90;;;6.80;99.90;;;;;;4966071;28;20183;-87
2020/12/04 09:04:12;;;;;;;1999.90;999.90;;;6.80;99.90;;;;;;4982762;28;20246;-87
2020/12/04 09:06:47;;;;;;;1999.90;999.90;;;6.90;99.90;;;;;;4964914;28;20712;-86
2020/12/04 09:09:26;;;;;;;1999.90;999.90;;;7.00;99.90;;;;;;4965814;28;20781;-88
2020/12/04 09:12:09;;;;;;;1999.90;999.90;;;7.10;99.90;;;;;;4965297;28;20199;-87
2020/12/04 09:18:09;;;;;;;1999.90;999.90;;;7.00;99.90;;;;;;4978435;28;20278;-86
2020/12/04 09:20:59;;;;;;;1999.90;999.90;;;7.10;99.90;;;;;;4964892;28;20197;-87
2020/12/04 09:23:54;;;;;;;1999.90;999.90;;;7.10;99.90;;;;;;4982939;28;20230;-86
2020/12/04 09:26:31;;;;;;;1999.90;999.90;;;7.10;99.90;;;;;;4965278;28;20179;-86
2020/12/04 09:29:51;;;;;;;;;;;;;;;;;;;;;
2020/12/04 09:32:26;;;;;;;1999.90;999.90;;;7.10;99.90;;;;;;4983263;28;20286;-85
2020/12/04 09:35:24;;;;;;;1999.90;999.90;;;7.20;99.90;;;;;;4983980;28;20510;-88
2020/12/04 09:37:54;;;;;;;1999.90;999.90;;;7.20;99.90;;;;;;4966630;28;20175;-87
2020/12/04 09:43:59;;;;;;;1999.90;999.90;;;7.30;99.90;;;;;;4959708;28;20225;-87
2020/12/04 09:46:44;;;;;;;1999.90;999.90;;;7.20;99.90;;;;;;4981895;28;20163;-86
2020/12/04 09:49:22;;;;;;;1999.90;999.90;;;7.30;99.90;;;;;;4982004;28;20148;-86
2020/12/04 09:52:07;;;;;;;1999.90;999.90;;;7.30;99.90;;;;;;4963221;28;20607;-87
2020/12/04 09:54:50;;;;;;;1999.90;999.90;;;7.30;99.90;;;;;;4982129;28;20170;-87
2020/12/04 09:57:22;;;;;;;1999.90;999.90;;;7.40;99.90;;;;;;4963410;28;20623;-87
2020/12/04 10:00:00;;;;;;;1999.90;999.90;;;7.40;99.90;;;;;;4964085;28;20175;-87
2020/12/04 10:03:00;;;;;;;1999.90;999.90;;;7.40;99.90;;;;;;4981760;28;20163;-86
2020/12/04 10:05:29;;;;;;;1999.90;999.90;;;7.40;99.90;;;;;;4978760;28;20187;-87
2020/12/04 10:07:57;;;;;;;1999.90;999.90;;;7.40;99.90;;;;;;4980666;28;20178;-87
2020/12/04 10:10:53;;;;;;;1999.90;999.90;;;7.40;99.90;;;;;;4963947;28;20198;-86
2020/12/04 10:13:19;;;;;;;1999.90;999.90;;;7.50;99.90;;;;;;4964927;28;20262;-86
2020/12/04 10:16:14;;;;;;;1999.90;999.90;;;7.50;99.90;;;;;;4982899;28;20214;-86
2020/12/04 10:18:53;;;;;;;1999.90;999.90;;;7.60;99.90;;;;;;4983828;28;20167;-87
2020/12/04 10:22:09;;;;;;;1999.90;999.90;;;7.60;99.90;;;;;;4984825;28;20175;-86
2020/12/04 10:24:41;;;;;;;1999.90;999.90;;;7.60;99.90;;;;;;4985257;28;20172;-84
2020/12/04 10:27:42;;;;;;;1999.90;999.90;;;7.60;99.90;;;;;;4986629;28;20171;-84
2020/12/04 10:30:20;;;;;;;1999.90;999.90;;;7.70;99.90;;;;;;4983097;28;20178;-87
2020/12/04 10:32:55;;;;;;;1999.90;999.90;;;7.80;99.90;;;;;;4965892;28;20755;-87
2020/12/04 10:35:39;;;;;;;1999.90;999.90;;;7.80;99.90;;;;;;4967673;28;20179;-84
2020/12/04 10:38:10;;;;;;;1999.90;999.90;;;7.80;99.90;;;;;;4965978;28;20175;-87
2020/12/04 10:40:46;;;;;;;1999.90;999.90;;;7.80;99.90;;;;;;4983478;28;20655;-85
2020/12/04 10:43:12;;;;;;;1999.90;999.90;;;7.80;99.90;;;;;;4984947;28;20222;-84
2020/12/04 10:45:49;;;;;;;1999.90;999.90;;;7.80;99.90;;;;;;4984383;28;20195;-84
2020/12/04 10:48:20;;;;;;;1999.90;999.90;;;7.80;99.90;;;;;;4983765;28;20497;-86
2020/12/04 10:50:49;;;;;;;1999.90;999.90;;;7.80;99.90;;;;;;4965016;28;20225;-87
2020/12/04 10:53:22;;;;;;;1999.90;999.90;;;7.80;99.90;;;;;;4964694;28;20282;-86
2020/12/04 10:56:14;;;;;;;1999.90;999.90;;;7.80;99.90;;;;;;4966080;28;20578;-85
2020/12/04 10:59:28;;;;;;;1999.90;999.90;;;7.90;99.90;;;;;;4962497;28;20207;-87
2020/12/04 11:07:50;;;;;;;1999.90;999.90;;;7.90;99.90;;;;;;4980870;28;20237;-86
2020/12/04 11:10:19;;;;;;;1999.90;999.90;;;7.90;99.90;;;;;;4980528;28;20742;-84
2020/12/04 11:12:56;;;;;;;1999.90;999.90;;;7.80;99.90;;;;;;4964369;28;20217;-86
2020/12/04 11:15:31;;;;;;;1999.90;999.90;;;7.80;99.90;;;;;;4965143;28;20171;-86
2020/12/04 11:18:25;;;;;;;;;;;;;;;;;;;;;
2020/12/04 11:21:08;;;;;;;1999.90;999.90;;;7.90;99.90;;;;;;4982637;28;20734;-85
2020/12/04 11:26:41;;;;;;;1999.90;999.90;;;7.80;99.90;;;;;;4961108;28;20610;-85
2020/12/04 11:29:16;;;;;;;1999.90;999.90;;;7.90;99.90;;;;;;4965969;28;20271;-87
2020/12/04 11:31:48;;;;;;;1999.90;999.90;;;7.90;99.90;;;;;;4965145;28;20194;-86
2020/12/04 11:34:45;;;;;;;1999.90;999.90;;;8.00;99.90;;;;;;4966490;28;20232;-85
2020/12/04 11:37:32;;;;;;;1999.90;999.90;;;8.10;99.90;;;;;;4964564;28;20174;-86
2020/12/04 11:40:20;;;;;;;1999.90;999.90;;;8.20;99.90;;;;;;4982056;28;20631;-86
2020/12/04 11:42:58;;;;;;;1999.90;999.90;;;8.20;99.90;;;;;;4981559;28;20187;-86
2020/12/04 11:45:28;;;;;;;1999.90;999.90;;;8.10;99.90;;;;;;4981435;28;20151;-87
2020/12/04 11:47:57;;;;;;;1999.90;999.90;;;8.10;99.90;;;;;;4964935;28;20179;-86
2020/12/04 11:50:38;;;;;;;1999.90;999.90;;;8.10;99.90;;;;;;4981025;28;20178;-86
2020/12/04 11:53:40;;;;;;;1999.90;999.90;;;8.20;99.90;;;;;;4965535;28;20242;-86
2020/12/04 11:56:21;;;;;;;1999.90;999.90;;;8.20;99.90;;;;;;4981590;28;20201;-86
2020/12/04 11:59:01;;;;;;;1999.90;999.90;;;8.20;99.90;;;;;;4964557;28;20179;-84
2020/12/04 12:01:50;;;;;;;1999.90;999.90;;;8.20;99.90;;;;;;4982001;28;20231;-86
2020/12/04 12:04:18;;;;;;;1999.90;999.90;;;8.20;99.90;;;;;;4963873;28;20246;-86
2020/12/04 12:07:13;;;;;;;1999.90;999.90;;;8.20;99.90;;;;;;4963453;28;20175;-86
2020/12/04 12:09:47;;;;;;;1999.90;999.90;;;8.20;99.90;;;;;;4979997;28;20639;-87
2020/12/04 12:12:21;;;;;;;1999.90;999.90;;;8.40;99.90;;;;;;4981296;28;20205;-87
2020/12/04 12:14:51;;;;;;;1999.90;999.90;;;8.50;99.90;;;;;;4964073;28;20680;-86
2020/12/04 12:17:34;;;;;;;1999.90;999.90;;;8.60;99.90;;;;;;4980425;28;20191;-86
2020/12/04 12:20:03;;;;;;;1999.90;999.90;;;8.70;99.90;;;;;;4978906;28;20215;-86
2020/12/04 12:22:40;;;;;;;1999.90;999.90;;;8.80;99.90;;;;;;4982553;28;20167;-86
2020/12/04 12:25:22;;;;;;;1999.90;999.90;;;8.80;99.90;;;;;;4981419;28;20166;-86
2020/12/04 12:27:50;;;;;;;1999.90;999.90;;;8.90;99.90;;;;;;4980368;28;20246;-87
2020/12/04 12:30:34;;;;;;;1999.90;999.90;;;8.90;99.90;;;;;;4981586;28;20170;-87
2020/12/04 12:33:22;;;;;;;;;;;;;;;;;;;;;
2020/12/04 12:35:54;;;;;;;1999.90;999.90;;;8.80;99.90;;;;;;4980650;28;20254;-86
2020/12/04 12:38:25;;;;;;;1999.90;999.90;;;8.90;99.90;;;;;;4964695;28;20194;-86
2020/12/04 12:40:54;;;;;;;1999.90;999.90;;;8.90;99.90;;;;;;4980912;28;20156;-86
2020/12/04 12:43:36;;;;;;;1999.90;999.90;;;8.70;99.90;;;;;;4980666;28;20655;-87
2020/12/04 12:46:02;;;;;;;1999.90;999.90;;;8.70;99.90;;;;;;4963669;28;20243;-87
2020/12/04 12:49:44;;;;;;;1999.90;999.90;;;8.70;99.90;;;;;;4982780;28;20213;-87
2020/12/04 12:52:18;;;;;;;1999.90;999.90;;;8.50;99.90;;;;;;4932242;29;20199;-87
2020/12/04 12:54:47;;;;;;;1999.90;999.90;;;8.60;99.90;;;;;;4959829;29;20688;-87
2020/12/04 12:57:27;;;;;;;1999.90;999.90;;;8.60;99.90;;;;;;4977860;28;20189;-87
2020/12/04 12:59:58;;;;;;;1999.90;999.90;;;8.60;99.90;;;;;;4961562;28;20199;-87
2020/12/04 13:02:27;;;;;;;1999.90;999.90;;;8.70;99.90;;;;;;4977171;28;20190;-86
2020/12/04 13:04:56;;;;;;;1999.90;999.90;;;8.60;99.90;;;;;;4966076;28;20171;-87